createdAt,value
2023-05-11T00:01:26.464Z,76.39
2023-05-11T00:03:53.245Z,76.53
2023-05-11T00:06:19.860Z,76.22
2023-05-11T00:08:46.416Z,76.56
2023-05-11T00:11:13.133Z,76.90
2023-05-11T00:13:39.741Z,76.87
2023-05-11T00:16:06.521Z,76.72
2023-05-11T00:18:33.119Z,76.83
2023-05-11T00:20:59.795Z,76.85
2023-05-11T00:23:26.438Z,76.71
2023-05-11T00:25:53.039Z,76.95
2023-05-11T00:28:19.777Z,76.72
2023-05-11T00:30:46.485Z,76.93
2023-05-11T00:33:13.066Z,76.83
2023-05-11T00:35:39.634Z,77.06
2023-05-11T00:38:06.627Z,77.09
2023-05-11T00:40:33.577Z,77.10
2023-05-11T00:43:00.839Z,76.88
2023-05-11T00:45:27.745Z,76.99
2023-05-11T00:47:54.311Z,76.88
2023-05-11T00:50:21.133Z,77.01
2023-05-11T00:52:48.095Z,76.79
2023-05-11T00:55:15.060Z,76.59
2023-05-11T00:57:41.684Z,76.49
2023-05-11T01:00:11.422Z,76.84
2023-05-11T01:02:38.365Z,76.71
2023-05-11T01:08:07.078Z,75.71
2023-05-11T01:10:43.506Z,75.07
2023-05-11T01:13:30.851Z,74.55
2023-05-11T01:15:58.362Z,76.82
2023-05-11T01:18:37.505Z,76.28
2023-05-11T01:21:11.846Z,76.56
2023-05-11T01:23:53.985Z,74.11
2023-05-11T01:27:15.559Z,74.64
2023-05-11T01:29:56.284Z,74.91
2023-05-11T01:32:26.396Z,76.43
2023-05-11T01:35:02.743Z,74.64
2023-05-11T01:37:32.524Z,75.97
2023-05-11T01:40:03.696Z,76.25
2023-05-11T01:42:48.948Z,74.11
2023-05-11T01:45:17.253Z,76.31
2023-05-11T01:47:48.841Z,76.51
2023-05-11T01:50:17.550Z,75.98
2023-05-11T01:52:47.058Z,76.49
2023-05-11T01:55:17.478Z,76.22
2023-05-11T01:57:45.471Z,75.90
2023-05-11T02:00:15.975Z,76.38
2023-05-11T02:02:44.660Z,76.43
2023-05-11T02:05:12.152Z,76.60
2023-05-11T02:07:43.033Z,73.21
2023-05-11T02:10:10.878Z,76.06
2023-05-11T02:12:39.659Z,76.22
2023-05-11T02:15:08.998Z,76.33
2023-05-11T02:17:36.606Z,76.39
2023-05-11T02:20:04.886Z,76.39
2023-05-11T02:22:33.620Z,76.46
2023-05-11T02:25:00.390Z,76.58
2023-05-11T02:27:27.256Z,76.66
2023-05-11T02:29:55.451Z,76.62
2023-05-11T02:32:25.092Z,76.73
2023-05-11T02:35:00.988Z,75.05
2023-05-11T02:37:29.090Z,76.46
2023-05-11T02:39:58.720Z,74.65
2023-05-11T02:42:27.816Z,76.31
2023-05-11T02:45:03.616Z,75.21
2023-05-11T02:47:39.105Z,75.76
2023-05-11T02:50:09.179Z,76.72
2023-05-11T02:52:44.943Z,76.14
2023-05-11T02:55:14.908Z,76.52
2023-05-11T02:57:42.987Z,76.59
2023-05-11T03:00:11.111Z,76.85
2023-05-11T03:02:37.914Z,76.83
2023-05-11T03:05:05.876Z,76.62
2023-05-11T03:07:33.672Z,76.60
2023-05-11T03:10:02.615Z,76.41
2023-05-11T03:12:33.380Z,76.76
2023-05-11T03:15:01.077Z,76.59
2023-05-11T03:17:30.681Z,76.48
2023-05-11T03:19:59.169Z,76.17
2023-05-11T03:22:27.411Z,76.68
2023-05-11T03:24:54.070Z,76.65
2023-05-11T03:27:21.625Z,76.84
2023-05-11T03:29:50.086Z,76.82
2023-05-11T03:32:17.089Z,76.84
2023-05-11T03:34:44.318Z,76.73
2023-05-11T03:37:14.836Z,76.68
2023-05-11T03:39:46.611Z,75.90
2023-05-11T03:42:15.673Z,76.46
2023-05-11T03:44:46.164Z,75.65
2023-05-11T03:47:14.271Z,76.60
2023-05-11T03:49:41.490Z,73.56
2023-05-11T03:52:08.831Z,76.58
2023-05-11T03:54:36.295Z,76.74
2023-05-11T03:57:02.936Z,76.75
2023-05-11T03:59:29.799Z,77.08
2023-05-11T04:01:56.522Z,76.12
2023-05-11T04:04:30.044Z,73.33
2023-05-11T04:06:59.343Z,76.48
2023-05-11T04:09:26.244Z,76.06
2023-05-11T04:11:52.937Z,76.25
2023-05-11T04:14:19.809Z,76.44
2023-05-11T04:16:46.606Z,76.64
2023-05-11T04:19:13.254Z,76.61
2023-05-11T04:21:39.818Z,76.56
2023-05-11T04:24:06.609Z,76.32
2023-05-11T04:26:33.294Z,76.38
2023-05-11T04:28:59.995Z,76.47
2023-05-11T04:31:26.616Z,76.61
2023-05-11T04:33:53.316Z,76.74
2023-05-11T04:36:20.066Z,76.40
2023-05-11T04:38:46.717Z,76.65
2023-05-11T04:41:14.277Z,76.39
2023-05-11T04:43:41.719Z,76.23
2023-05-11T04:46:09.455Z,76.20
2023-05-11T04:48:36.226Z,76.22
2023-05-11T04:51:06.644Z,73.82
2023-05-11T04:53:38.146Z,75.95
2023-05-11T04:56:05.301Z,76.02
2023-05-11T04:58:31.880Z,75.69
2023-05-11T05:00:58.685Z,75.46
2023-05-11T05:03:25.413Z,76.15
2023-05-11T05:05:52.220Z,76.14
2023-05-11T05:08:18.968Z,76.45
2023-05-11T05:10:47.759Z,76.28
2023-05-11T05:13:14.476Z,77.07
2023-05-11T05:15:41.113Z,77.35
2023-05-11T05:18:07.917Z,77.88
2023-05-11T05:20:35.174Z,77.89
2023-05-11T05:23:02.449Z,78.39
2023-05-11T05:25:29.045Z,77.50
2023-05-11T05:27:55.649Z,77.52
2023-05-11T05:30:22.464Z,77.62
2023-05-11T05:32:50.311Z,77.35
2023-05-11T05:35:16.970Z,77.39
2023-05-11T05:37:43.975Z,76.58
2023-05-11T05:40:11.042Z,76.38
2023-05-11T05:42:43.792Z,76.03
2023-05-11T05:45:14.895Z,75.92
2023-05-11T05:47:42.162Z,75.97
2023-05-11T05:50:09.233Z,75.75
2023-05-11T05:52:35.886Z,75.25
2023-05-11T05:55:03.216Z,74.99
2023-05-11T05:57:30.097Z,75.15
2023-05-11T05:59:56.702Z,75.30
2023-05-11T06:02:25.877Z,74.61
2023-05-11T06:04:53.384Z,75.49
2023-05-11T06:07:20.338Z,75.59
2023-05-11T06:09:46.975Z,75.35
2023-05-11T06:12:14.140Z,75.87
2023-05-11T06:14:44.269Z,76.10
2023-05-11T06:17:10.912Z,75.61
2023-05-11T06:19:37.567Z,75.89
2023-05-11T06:22:06.675Z,75.63
2023-05-11T06:24:36.078Z,75.88
2023-05-11T06:27:03.280Z,75.86
2023-05-11T06:29:31.533Z,76.35
2023-05-11T06:31:58.897Z,76.23
2023-05-11T06:34:25.549Z,76.24
2023-05-11T06:36:52.169Z,76.25
2023-05-11T06:39:18.753Z,75.58
2023-05-11T06:41:45.488Z,75.04
2023-05-11T06:44:12.166Z,75.28
2023-05-11T06:46:42.999Z,75.60
2023-05-11T06:49:09.587Z,75.72
2023-05-11T06:51:36.238Z,75.06
2023-05-11T06:54:02.999Z,75.14
2023-05-11T06:56:30.112Z,75.16
2023-05-11T06:58:57.452Z,75.31
2023-05-11T07:01:24.093Z,75.43
2023-05-11T07:03:52.587Z,75.88
2023-05-11T07:06:20.880Z,76.02
2023-05-11T07:08:47.509Z,75.93
2023-05-11T07:11:14.484Z,76.34
2023-05-11T07:13:41.081Z,76.29
2023-05-11T07:16:07.724Z,75.95
2023-05-11T07:18:34.542Z,76.12
2023-05-11T07:21:01.124Z,76.17
2023-05-11T07:23:27.744Z,76.33
2023-05-11T07:25:54.462Z,76.44
2023-05-11T07:28:21.009Z,76.28
2023-05-11T07:30:47.770Z,76.71
2023-05-11T07:33:14.548Z,76.69
2023-05-11T07:35:43.504Z,76.77
2023-05-11T07:38:10.200Z,76.09
2023-05-11T07:40:36.871Z,76.45
2023-05-11T07:43:03.760Z,76.74
2023-05-11T07:45:30.387Z,76.82
2023-05-11T07:47:57.186Z,76.66
2023-05-11T07:50:24.609Z,76.87
2023-05-11T07:52:51.603Z,77.26
2023-05-11T07:55:18.544Z,77.27
2023-05-11T07:57:45.682Z,77.39
2023-05-11T08:00:12.860Z,77.71
2023-05-11T08:02:39.677Z,77.00
2023-05-11T08:05:06.948Z,77.17
2023-05-11T08:07:33.557Z,77.45
2023-05-11T08:10:00.190Z,76.41
2023-05-11T08:12:26.906Z,76.23
2023-05-11T08:14:53.496Z,76.63
2023-05-11T08:17:20.115Z,76.24
2023-05-11T08:19:46.701Z,75.63
2023-05-11T08:22:13.565Z,75.60
2023-05-11T08:24:40.384Z,75.66
2023-05-11T08:27:07.059Z,75.52
2023-05-11T08:29:33.608Z,75.14
2023-05-11T08:32:00.313Z,75.47
2023-05-11T08:34:27.202Z,75.26
2023-05-11T08:36:53.892Z,74.95
2023-05-11T08:39:38.995Z,74.37
2023-05-11T08:42:10.372Z,71.10
2023-05-11T08:44:38.674Z,73.78
2023-05-11T08:47:21.966Z,74.69
2023-05-11T08:49:51.533Z,75.25
2023-05-11T08:52:18.570Z,75.28
2023-05-11T08:54:48.709Z,75.87
2023-05-11T08:57:15.327Z,75.73
2023-05-11T08:59:44.954Z,75.24
2023-05-11T09:02:16.516Z,75.64
2023-05-11T09:04:46.078Z,77.69
2023-05-11T09:07:18.538Z,75.05
2023-05-11T09:09:47.056Z,76.88
2023-05-11T09:12:13.813Z,72.29
2023-05-11T09:14:40.515Z,76.78
2023-05-11T09:17:07.292Z,76.38
2023-05-11T09:19:33.915Z,76.47
2023-05-11T09:22:00.731Z,76.82
2023-05-11T09:24:27.480Z,76.69
2023-05-11T09:27:07.316Z,73.99
2023-05-11T09:29:33.957Z,77.12
2023-05-11T09:32:00.564Z,76.90
2023-05-11T09:34:27.227Z,76.66
2023-05-11T09:36:56.015Z,76.98
2023-05-11T09:39:39.902Z,73.28
2023-05-11T09:42:23.780Z,75.99
2023-05-11T09:44:50.453Z,76.53
2023-05-11T09:47:19.045Z,75.30
2023-05-11T09:49:47.261Z,74.45
2023-05-11T09:52:16.219Z,74.30
2023-05-11T09:54:44.336Z,74.86
2023-05-11T09:57:27.282Z,70.44
2023-05-11T09:59:55.534Z,74.50
2023-05-11T10:02:31.636Z,74.33
2023-05-11T10:05:00.466Z,74.36
2023-05-11T10:07:32.380Z,72.74
2023-05-11T10:10:01.917Z,74.00
2023-05-11T10:12:29.670Z,75.09
2023-05-11T10:15:04.423Z,72.64
2023-05-11T10:17:31.258Z,75.14
2023-05-11T10:19:58.817Z,75.27
2023-05-11T10:22:27.089Z,75.18
2023-05-11T10:24:54.797Z,75.21
2023-05-11T10:27:21.832Z,74.91
2023-05-11T10:29:49.167Z,75.56
2023-05-11T10:32:17.743Z,75.41
2023-05-11T10:34:45.577Z,75.86
2023-05-11T10:37:13.753Z,75.44
2023-05-11T10:39:40.784Z,70.90
2023-05-11T10:42:22.770Z,71.71
2023-05-11T10:44:55.399Z,74.53
2023-05-11T10:47:37.152Z,72.04
2023-05-11T10:50:09.556Z,73.80
2023-05-11T10:52:54.363Z,74.20
2023-05-11T10:55:46.224Z,73.84
2023-05-11T10:58:19.857Z,75.19
2023-05-11T11:01:09.269Z,73.28
2023-05-11T11:03:36.023Z,77.17
2023-05-11T11:06:04.067Z,76.78
2023-05-11T11:08:50.723Z,73.04
2023-05-11T11:11:31.032Z,73.86
2023-05-11T11:13:59.481Z,76.75
2023-05-11T11:16:26.206Z,76.15
2023-05-11T11:18:52.908Z,74.83
2023-05-11T11:21:41.600Z,70.16
2023-05-11T11:24:08.265Z,74.32
2023-05-11T11:26:50.894Z,70.85
2023-05-11T11:29:17.458Z,74.54
2023-05-11T11:31:44.376Z,74.59
2023-05-11T11:34:29.240Z,69.56
2023-05-11T11:36:55.814Z,74.46
2023-05-11T11:39:23.639Z,74.21
2023-05-11T11:42:21.405Z,70.32
2023-05-11T11:44:47.953Z,70.64
2023-05-11T11:47:21.728Z,70.59
2023-05-11T11:50:11.566Z,72.00
2023-05-11T11:52:38.216Z,74.14
2023-05-11T11:55:05.406Z,74.16
2023-05-11T11:57:34.753Z,71.81
2023-05-11T12:00:06.672Z,72.54
2023-05-11T12:02:43.631Z,72.85
2023-05-11T12:05:19.142Z,74.16
2023-05-11T12:07:48.532Z,74.12
2023-05-11T12:10:20.259Z,72.86
2023-05-11T12:12:53.255Z,72.22
2023-05-11T12:15:28.384Z,72.81
2023-05-11T12:17:55.589Z,74.92
2023-05-11T12:20:23.174Z,74.91
2023-05-11T12:22:50.387Z,75.16
2023-05-11T12:25:19.114Z,74.97
2023-05-11T12:27:47.048Z,74.93
2023-05-11T12:30:23.220Z,72.73
2023-05-11T12:32:56.681Z,74.81
2023-05-11T12:35:25.064Z,74.77
2023-05-11T12:37:52.411Z,72.00
2023-05-11T12:40:19.502Z,75.44
2023-05-11T12:42:55.651Z,72.70
2023-05-11T12:45:23.832Z,75.43
2023-05-11T12:47:52.721Z,75.52
2023-05-11T12:50:20.070Z,75.70
2023-05-11T12:52:47.548Z,75.11
2023-05-11T12:55:14.114Z,74.82
2023-05-11T12:57:40.951Z,74.96
2023-05-11T13:00:13.114Z,74.16
2023-05-11T13:02:51.586Z,72.59
2023-05-11T13:05:19.050Z,72.66
2023-05-11T13:07:46.038Z,74.83
2023-05-11T13:10:13.404Z,75.14
2023-05-11T13:12:50.190Z,72.61
2023-05-11T13:15:16.921Z,75.17
2023-05-11T13:17:44.780Z,75.05
2023-05-11T13:20:27.830Z,72.65
2023-05-11T13:23:07.011Z,72.06
2023-05-11T13:25:35.771Z,74.51
2023-05-11T13:28:02.465Z,75.07
2023-05-11T13:30:29.145Z,75.21
2023-05-11T13:32:55.765Z,75.05
2023-05-11T13:35:22.825Z,74.89
2023-05-11T13:37:49.377Z,74.91
2023-05-11T13:40:16.130Z,74.77
2023-05-11T13:42:45.978Z,74.09
2023-05-11T13:45:12.545Z,74.30
2023-05-11T13:47:39.323Z,74.59
2023-05-11T13:50:06.714Z,74.85
2023-05-11T13:52:33.480Z,74.72
2023-05-11T13:55:00.075Z,74.40
2023-05-11T13:57:26.780Z,74.92
2023-05-11T13:59:53.478Z,74.64
2023-05-11T14:02:20.055Z,74.01
2023-05-11T14:04:46.655Z,74.25
2023-05-11T14:07:13.406Z,74.30
2023-05-11T14:09:40.101Z,74.44
2023-05-11T14:12:07.069Z,74.64
2023-05-11T14:14:33.639Z,74.14
2023-05-11T14:17:00.335Z,73.91
2023-05-11T14:19:27.190Z,74.12
2023-05-11T14:21:53.772Z,74.06
2023-05-11T14:24:20.432Z,74.38
2023-05-11T14:26:47.153Z,74.53
2023-05-11T14:29:13.711Z,74.94
2023-05-11T14:31:40.717Z,74.51
2023-05-11T14:34:07.309Z,74.75
2023-05-11T14:36:33.931Z,75.00
2023-05-11T14:39:00.520Z,75.00
2023-05-11T14:41:27.102Z,74.93
2023-05-11T14:43:53.736Z,74.60
2023-05-11T14:46:21.814Z,74.42
2023-05-11T14:48:48.562Z,74.75
2023-05-11T14:51:15.190Z,74.99
2023-05-11T14:53:41.746Z,74.36
2023-05-11T14:56:08.504Z,74.63
2023-05-11T14:58:35.279Z,73.56
2023-05-11T15:01:02.128Z,73.46
2023-05-11T15:03:28.752Z,73.73
2023-05-11T15:05:55.365Z,74.18
2023-05-11T15:08:29.531Z,74.09
2023-05-11T15:10:57.195Z,74.25
2023-05-11T15:13:24.096Z,74.48
2023-05-11T15:15:51.325Z,74.26
2023-05-11T15:18:18.155Z,74.63
2023-05-11T15:20:44.955Z,74.32
2023-05-11T15:23:11.786Z,74.35
2023-05-11T15:25:38.508Z,74.24
2023-05-11T15:28:05.497Z,73.79
2023-05-11T15:30:32.742Z,74.16
2023-05-11T15:32:59.687Z,73.61
2023-05-11T15:35:26.529Z,73.46
2023-05-11T15:37:53.155Z,73.38
2023-05-11T15:40:19.931Z,73.64
2023-05-11T15:42:46.536Z,73.61
2023-05-11T15:45:13.100Z,73.99
2023-05-11T15:47:39.734Z,73.84
2023-05-11T15:50:07.333Z,74.12
2023-05-11T15:52:33.905Z,74.17
2023-05-11T15:55:00.526Z,73.87
2023-05-11T15:57:27.117Z,73.68
2023-05-11T15:59:53.709Z,73.56
2023-05-11T16:02:20.343Z,73.82
2023-05-11T16:04:46.913Z,73.90
2023-05-11T16:07:13.553Z,73.83
2023-05-11T16:09:40.127Z,73.43
2023-05-11T16:12:07.179Z,73.90
2023-05-11T16:14:33.789Z,74.09
2023-05-11T16:17:03.614Z,74.62
2023-05-11T16:19:30.233Z,74.53
2023-05-11T16:21:57.251Z,74.51
2023-05-11T16:24:23.862Z,74.43
2023-05-11T16:26:51.087Z,74.28
2023-05-11T16:29:17.668Z,73.93
2023-05-11T16:31:44.382Z,74.42
2023-05-11T16:34:11.088Z,74.29
2023-05-11T16:36:38.052Z,74.68
2023-05-11T16:39:04.690Z,74.73
2023-05-11T16:41:31.398Z,73.76
2023-05-11T16:43:57.988Z,74.30
2023-05-11T16:46:24.784Z,74.44
2023-05-11T16:48:51.385Z,74.44
2023-05-11T16:51:18.005Z,74.46
2023-05-11T16:53:44.643Z,74.85
2023-05-11T16:56:11.272Z,74.70
2023-05-11T16:58:37.836Z,74.57
2023-05-11T17:01:04.605Z,74.68
2023-05-11T17:03:31.353Z,74.67
2023-05-11T17:05:58.414Z,75.03
2023-05-11T17:08:24.974Z,75.39
2023-05-11T17:10:51.565Z,75.37
2023-05-11T17:13:18.134Z,75.45
2023-05-11T17:15:44.734Z,75.80
2023-05-11T17:18:11.389Z,75.88
2023-05-11T17:20:38.002Z,75.84
2023-05-11T17:23:04.576Z,75.53
2023-05-11T17:25:31.139Z,75.39
2023-05-11T17:27:57.814Z,74.94
2023-05-11T17:30:30.029Z,75.21
2023-05-11T17:33:03.181Z,74.88
2023-05-11T17:35:29.968Z,75.00
2023-05-11T17:37:56.516Z,75.26
2023-05-11T17:40:23.070Z,75.23
2023-05-11T17:42:49.628Z,75.18
2023-05-11T17:45:16.824Z,75.43
2023-05-11T17:47:43.538Z,75.49
2023-05-11T17:50:10.551Z,75.43
2023-05-11T17:52:37.152Z,74.97
2023-05-11T17:55:04.060Z,74.79
2023-05-11T17:57:30.799Z,74.75
2023-05-11T17:59:57.368Z,74.73
2023-05-11T18:02:24.066Z,74.57
2023-05-11T18:04:50.865Z,74.49
2023-05-11T18:07:17.502Z,74.53
2023-05-11T18:09:44.341Z,74.35
2023-05-11T18:12:10.963Z,74.26
2023-05-11T18:14:37.776Z,74.53
2023-05-11T18:17:04.675Z,74.53
2023-05-11T18:19:31.422Z,74.69
2023-05-11T18:21:59.099Z,74.74
2023-05-11T18:24:25.822Z,75.04
2023-05-11T18:26:52.675Z,74.90
2023-05-11T18:29:19.614Z,74.88
2023-05-11T18:31:46.675Z,75.00
2023-05-11T18:34:13.341Z,75.24
2023-05-11T18:36:40.036Z,75.36
2023-05-11T18:39:06.612Z,75.12
2023-05-11T18:41:33.225Z,75.25
2023-05-11T18:43:59.808Z,75.20
2023-05-11T18:46:26.503Z,75.00
2023-05-11T18:48:53.076Z,75.00
2023-05-11T18:51:20.601Z,74.98
2023-05-11T18:53:47.252Z,75.03
2023-05-11T18:56:13.830Z,75.02
2023-05-11T18:58:40.463Z,74.85
2023-05-11T19:01:07.245Z,74.50
2023-05-11T19:03:33.966Z,74.38
2023-05-11T19:06:00.552Z,74.28
2023-05-11T19:08:27.710Z,74.20
2023-05-11T19:10:54.420Z,74.32
2023-05-11T19:13:21.057Z,74.56
2023-05-11T19:15:47.644Z,74.63
2023-05-11T19:18:14.401Z,74.79
2023-05-11T19:20:41.121Z,74.84
2023-05-11T19:23:07.717Z,74.88
2023-05-11T19:25:34.406Z,74.86
2023-05-11T19:28:04.012Z,74.80
2023-05-11T19:30:30.620Z,74.79
2023-05-11T19:32:57.323Z,74.54
2023-05-11T19:35:24.192Z,74.27
2023-05-11T19:37:50.749Z,74.42
2023-05-11T19:42:46.822Z,74.54
2023-05-11T19:45:14.775Z,74.31
2023-05-11T19:47:41.464Z,74.26
2023-05-11T19:50:08.840Z,74.19
2023-05-11T19:52:36.179Z,74.12
2023-05-11T19:55:03.709Z,74.34
2023-05-11T19:57:30.848Z,74.74
2023-05-11T19:59:58.315Z,74.88
2023-05-11T20:02:24.913Z,75.13
2023-05-11T20:04:51.499Z,75.21
2023-05-11T20:07:18.134Z,75.12
2023-05-11T20:09:44.800Z,75.11
2023-05-11T20:12:11.429Z,75.15
2023-05-11T20:14:38.103Z,74.92
2023-05-11T20:17:05.071Z,74.64
2023-05-11T20:19:31.663Z,74.43
2023-05-11T20:21:58.247Z,74.37
2023-05-11T20:24:24.879Z,74.52
2023-05-11T20:26:51.683Z,74.68
2023-05-11T20:29:18.454Z,74.99
2023-05-11T20:31:45.118Z,75.04
2023-05-11T20:34:12.008Z,74.95
2023-05-11T20:36:38.940Z,75.00
2023-05-11T20:39:05.793Z,75.05
2023-05-11T20:41:33.539Z,74.87
2023-05-11T20:44:00.168Z,74.94
2023-05-11T20:46:26.876Z,75.23
2023-05-11T20:48:53.503Z,75.35
2023-05-11T20:51:20.128Z,75.52
2023-05-11T20:53:46.712Z,75.60
2023-05-11T20:56:13.302Z,75.46
2023-05-11T20:58:39.994Z,75.47
2023-05-11T21:01:06.689Z,75.40
2023-05-11T21:03:33.462Z,75.26
2023-05-11T21:06:00.410Z,75.19
2023-05-11T21:08:27.278Z,75.31
2023-05-11T21:10:53.909Z,75.25
2023-05-11T21:13:20.450Z,75.27
2023-05-11T21:15:47.091Z,75.44
2023-05-11T21:18:13.810Z,75.21
2023-05-11T21:20:40.488Z,75.39
2023-05-11T21:23:07.255Z,75.20
2023-05-11T21:25:34.201Z,75.28
2023-05-11T21:28:00.891Z,75.30
2023-05-11T21:30:27.772Z,75.36
2023-05-11T21:32:54.391Z,74.93
2023-05-11T21:35:21.115Z,74.69
2023-05-11T21:37:47.697Z,74.71
2023-05-11T21:40:14.480Z,74.97
2023-05-11T21:42:41.091Z,75.32
2023-05-11T21:45:08.690Z,75.26
2023-05-11T21:47:35.295Z,75.40
2023-05-11T21:50:02.062Z,75.22
2023-05-11T21:52:28.672Z,75.14
2023-05-11T21:54:55.278Z,75.11
2023-05-11T21:57:22.017Z,75.25
2023-05-11T21:59:49.961Z,75.44
2023-05-11T22:02:17.844Z,75.58
2023-05-11T22:04:44.746Z,75.81
2023-05-11T22:07:11.377Z,75.73
2023-05-11T22:09:38.142Z,75.90
2023-05-11T22:12:05.080Z,75.73
2023-05-11T22:14:31.831Z,75.76
2023-05-11T22:16:58.575Z,75.47
2023-05-11T22:19:25.141Z,75.26
2023-05-11T22:21:52.290Z,74.84
2023-05-11T22:24:19.037Z,74.83
2023-05-11T22:26:45.718Z,75.03
2023-05-11T22:29:12.404Z,75.17
2023-05-11T22:31:39.174Z,75.28
2023-05-11T22:34:05.902Z,75.34
2023-05-11T22:36:32.660Z,75.22
2023-05-11T22:38:59.260Z,75.31
2023-05-11T22:41:25.905Z,75.31
2023-05-11T22:43:52.518Z,75.22
2023-05-11T22:46:19.178Z,75.24
2023-05-11T22:48:45.854Z,75.02
2023-05-11T22:51:12.741Z,75.05
2023-05-11T22:53:39.377Z,75.11
2023-05-11T22:56:07.041Z,75.00
2023-05-11T22:58:33.997Z,75.05
2023-05-11T23:01:01.083Z,75.12
2023-05-11T23:03:28.182Z,75.27
2023-05-11T23:05:55.335Z,75.13
2023-05-11T23:08:21.927Z,74.56
2023-05-11T23:10:52.559Z,72.63
2023-05-11T23:13:19.109Z,74.50
2023-05-11T23:15:45.717Z,74.47
2023-05-11T23:18:12.566Z,74.69
2023-05-11T23:20:39.448Z,74.86
2023-05-11T23:23:06.063Z,74.96
2023-05-11T23:25:32.640Z,75.00
2023-05-11T23:27:59.366Z,74.84
2023-05-11T23:30:26.164Z,74.89
2023-05-11T23:32:53.102Z,74.75
2023-05-11T23:35:19.808Z,74.62
2023-05-11T23:37:46.651Z,74.57
2023-05-11T23:40:13.441Z,74.28
2023-05-11T23:42:40.174Z,74.17
2023-05-11T23:45:07.399Z,73.67
2023-05-11T23:47:34.204Z,73.42
2023-05-11T23:50:01.052Z,72.92
2023-05-11T23:52:27.773Z,72.56
2023-05-11T23:54:54.309Z,72.15
2023-05-11T23:57:20.996Z,71.75
2023-05-11T23:59:47.561Z,71.69
